< Typhoon 196310 1963 Season Typhoon 196312 >
Typhoon 196311 (DELLA)
General InformationTrack Information on Google Maps || Disaster Info.ResourceGoogle EarthGE AnimationAtom FeedGeoJSON
Detalied Best Track (Time Zone = UTC)
Year Month Day Hour Lat. Long. Pressure (hPa) Wind (kt) Class Image Chart
1963 8 23 18 22.3 137.4 1008 0 2 -- Chart
1963 8 24 00 23.3 136.0 1008 0 2 -- Chart
1963 8 24 06 24.2 135.0 1006 0 2 -- Chart
1963 8 24 12 24.8 134.0 1006 0 2 -- Chart
1963 8 24 18 25.4 133.0 1002 0 2 -- Chart
1963 8 25 00 26.0 132.0 1002 0 2 -- Chart
1963 8 25 06 26.5 131.3 1002 0 2 -- Chart
1963 8 25 12 27.2 130.8 995 0 9 -- Chart
1963 8 25 18 27.7 130.8 988 0 9 -- Chart
1963 8 26 00 28.4 130.9 980 0 9 -- Chart
1963 8 26 06 28.8 131.3 975 0 9 -- Chart
1963 8 26 12 29.3 131.6 975 0 9 -- Chart
1963 8 26 18 29.8 131.8 975 0 9 -- Chart
1963 8 27 00 30.5 132.2 975 0 9 -- Chart
1963 8 27 06 31.0 132.4 975 0 9 -- Chart
1963 8 27 12 31.5 133.0 975 0 9 -- Chart
1963 8 27 18 32.0 133.8 975 0 9 -- Chart
1963 8 28 00 32.7 135.0 976 0 9 -- Chart
1963 8 28 06 33.3 136.0 976 0 9 -- Chart
1963 8 28 12 33.8 137.6 978 0 9 -- Chart
1963 8 28 18 34.5 139.3 980 0 9 -- Chart
1963 8 29 00 35.0 140.9 982 0 9 -- Chart
1963 8 29 06 35.5 142.8 985 0 9 -- Chart
1963 8 29 12 36.2 144.4 985 0 6 -- Chart
1963 8 29 18 36.7 146.3 990 0 6 -- Chart
1963 8 30 00 37.5 148.5 998 0 6 -- Chart
1963 8 30 06 38.5 149.5 998 0 6 -- Chart
1963 8 30 12 39.5 150.4 998 0 6 -- Chart
1963 8 30 18 40.5 151.0 998 0 6 -- Chart
1963 8 31 00 41.0 152.0 998 0 6 -- Chart
1963 8 31 06 41.7 153.5 996 0 6 -- Chart
1963 8 31 12 42.1 155.8 998 0 6 -- Chart
1963 8 31 18 42.7 158.2 998 0 6 -- Chart
1963 9 1 00 43.8 161.2 996 0 6 -- Chart
1963 9 1 06 45.3 164.6 996 0 6 -- Chart
1963 9 1 12 47.0 167.3 994 0 6 -- Chart
1963 9 1 18 49.0 169.0 994 0 6 -- Chart
1963 9 2 00 51.0 170.0 996 0 6 -- Chart
Japan Meteorological Agency Best Track Data | Correction Date : 1989-06-01
< Typhoon 196310 1963 Season Typhoon 196312 >

Help